Time;durP1;ratioP1;P1;durP2;ratioP2;P2;SDS_P1;SDS_P2;PMS_P1;PMS_P2;Temp;Humidity;BMP_temperature;BMP_pressure;BME280_temperature;BME280_humidity;BME280_pressure;Samples;Min_cycle;Max_cycle;Signal;HPM_P1;HPM_P2
2022/12/18 00:01:06;;;;;;;35.53;17.95;;;0.00;99.90;;;;;;4961205;28;20122;-62
2022/12/18 00:03:33;;;;;;;46.17;20.27;;;0.00;99.90;;;;;;4957959;28;20531;-62
2022/12/18 00:06:00;;;;;;;40.67;19.83;;;0.00;99.90;;;;;;4952902;28;20043;-61
2022/12/18 00:08:27;;;;;;;37.45;16.77;;;0.00;99.90;;;;;;4983531;28;20055;-61
2022/12/18 00:10:54;;;;;;;35.53;17.42;;;-0.10;99.90;;;;;;4969408;28;20054;-61
2022/12/18 00:13:25;;;;;;;39.38;17.35;;;0.00;99.90;;;;;;4965830;28;20047;-62
2022/12/18 00:15:53;;;;;;;47.70;18.50;;;-0.10;99.90;;;;;;4967480;28;20054;-61
2022/12/18 00:18:22;;;;;;;41.42;17.52;;;-0.10;99.90;;;;;;4967745;28;20050;-62
2022/12/18 00:20:49;;;;;;;36.17;16.75;;;-0.10;99.90;;;;;;4967755;28;20050;-63
2022/12/18 00:23:16;;;;;;;41.33;17.88;;;0.00;99.90;;;;;;4966801;28;20042;-62
2022/12/18 00:25:42;;;;;;;34.45;17.33;;;-0.10;99.90;;;;;;4967519;28;20086;-62
2022/12/18 00:28:09;;;;;;;36.17;17.80;;;0.00;99.90;;;;;;4967524;28;20228;-62
2022/12/18 00:30:36;;;;;;;39.47;16.98;;;0.00;99.90;;;;;;4969281;28;20085;-62
2022/12/18 00:33:03;;;;;;;39.95;17.58;;;-0.10;99.90;;;;;;4969877;28;20190;-63
2022/12/18 00:35:30;;;;;;;37.08;16.75;;;-0.10;99.90;;;;;;4970213;28;20421;-63
2022/12/18 00:37:56;;;;;;;38.13;18.20;;;-0.10;99.90;;;;;;4968389;28;20049;-63
2022/12/18 00:40:23;;;;;;;41.80;18.25;;;-0.10;99.90;;;;;;4968771;28;20047;-63
2022/12/18 00:42:56;;;;;;;39.92;18.90;;;-0.20;99.90;;;;;;4969589;28;20081;-62
2022/12/18 00:45:29;;;;;;;36.60;17.75;;;0.00;99.90;;;;;;4969892;28;20051;-63
2022/12/18 00:47:56;;;;;;;39.25;17.15;;;-0.10;99.90;;;;;;4968307;28;20043;-63
2022/12/18 00:50:23;;;;;;;35.92;16.05;;;-0.20;99.90;;;;;;4968962;28;20054;-62
2022/12/18 00:52:50;;;;;;;32.60;15.25;;;-0.10;99.90;;;;;;4963197;28;20085;-61
2022/12/18 00:55:17;;;;;;;34.28;16.83;;;-0.20;99.90;;;;;;4969580;28;20055;-61
2022/12/18 00:57:44;;;;;;;33.47;16.48;;;-0.20;99.90;;;;;;4968389;28;20413;-61
2022/12/18 01:00:12;;;;;;;36.90;18.17;;;-0.20;99.90;;;;;;4969648;28;20094;-62
2022/12/18 01:02:39;;;;;;;43.13;16.38;;;-0.30;99.90;;;;;;4969665;28;20049;-62
2022/12/18 01:05:07;;;;;;;37.97;17.40;;;-0.30;99.90;;;;;;4969679;28;20050;-60
2022/12/18 01:07:33;;;;;;;39.70;16.17;;;-0.30;99.90;;;;;;4970288;28;20047;-61
2022/12/18 01:10:00;;;;;;;37.05;16.60;;;-0.40;99.90;;;;;;4969567;28;20106;-61
2022/12/18 01:12:27;;;;;;;39.05;17.25;;;-0.40;99.90;;;;;;4970385;28;20129;-62
2022/12/18 01:14:54;;;;;;;32.63;15.57;;;-0.40;99.90;;;;;;4969816;28;20556;-61
2022/12/18 01:17:21;;;;;;;34.75;17.08;;;-0.50;99.90;;;;;;4970440;28;20062;-63
2022/12/18 01:19:47;;;;;;;40.00;16.75;;;-0.50;99.90;;;;;;4969817;28;20055;-61
2022/12/18 01:22:14;;;;;;;36.80;16.20;;;-0.50;99.90;;;;;;4957629;28;20077;-61
2022/12/18 01:24:41;;;;;;;35.63;16.15;;;-0.60;99.90;;;;;;4962280;28;20050;-61
2022/12/18 01:27:07;;;;;;;37.00;17.77;;;-0.60;99.90;;;;;;4969688;28;20059;-62
2022/12/18 01:29:34;;;;;;;34.30;16.52;;;-0.50;99.90;;;;;;4969358;28;20081;-62
2022/12/18 01:32:01;;;;;;;36.50;14.75;;;-0.70;99.90;;;;;;4969496;28;20134;-62
2022/12/18 01:34:28;;;;;;;37.45;17.48;;;-0.70;99.90;;;;;;4969073;28;20593;-61
2022/12/18 01:36:54;;;;;;;39.20;17.92;;;-0.70;99.90;;;;;;4969334;28;20086;-61
2022/12/18 01:39:21;;;;;;;39.45;15.13;;;-0.60;99.90;;;;;;4968245;28;20051;-61
2022/12/18 01:42:03;;;;;;;44.50;16.40;;;-0.70;99.90;;;;;;4958615;28;20045;-62
2022/12/18 01:45:04;;;;;;;38.80;16.90;;;-0.70;99.90;;;;;;4968820;28;20077;-61
2022/12/18 01:47:46;;;;;;;38.60;15.20;;;-0.80;99.90;;;;;;4969180;28;20058;-61
2022/12/18 01:50:18;;;;;;;36.15;15.35;;;-0.80;99.90;;;;;;4623271;28;10000559;-61
2022/12/18 01:52:52;;;;;;;30.55;15.30;;;-0.80;99.90;;;;;;4969244;28;20379;-63
2022/12/18 01:55:22;;;;;;;31.60;14.77;;;-0.90;99.90;;;;;;4969448;28;20047;-62
2022/12/18 01:57:51;;;;;;;35.28;13.45;;;-0.90;99.90;;;;;;4984441;28;20046;-63
2022/12/18 02:00:19;;;;;;;34.72;16.40;;;-0.90;99.90;;;;;;4969216;28;20047;-61
2022/12/18 02:02:46;;;;;;;32.83;14.70;;;-0.80;99.90;;;;;;4973347;28;20047;-62
2022/12/18 02:05:18;;;;;;;34.63;16.65;;;-0.80;99.90;;;;;;4972810;28;20099;-62
2022/12/18 02:08:07;;;;;;;37.50;14.82;;;-0.70;99.90;;;;;;4972415;28;20049;-61
2022/12/18 02:11:08;;;;;;;33.15;14.75;;;-0.70;99.90;;;;;;4966871;28;20054;-62
2022/12/18 02:13:37;;;;;;;35.15;13.93;;;-0.70;99.90;;;;;;4972253;28;20138;-62
2022/12/18 02:16:10;;;;;;;36.70;16.27;;;-0.70;99.90;;;;;;4972108;28;20214;-61
2022/12/18 02:18:40;;;;;;;28.60;14.38;;;-0.70;99.90;;;;;;4972200;28;20484;-63
2022/12/18 02:21:30;;;;;;;31.23;14.40;;;-0.70;99.90;;;;;;4970800;28;20042;-62
2022/12/18 02:24:19;;;;;;;29.23;14.43;;;-0.70;99.90;;;;;;4966697;28;20137;-62
2022/12/18 02:26:57;;;;;;;29.67;12.65;;;-0.70;99.90;;;;;;4971015;28;20042;-60
2022/12/18 02:29:27;;;;;;;31.77;14.55;;;-0.80;99.90;;;;;;4971357;28;20057;-61
2022/12/18 02:31:56;;;;;;;34.47;15.43;;;-0.80;99.90;;;;;;4970504;28;20046;-61
2022/12/18 02:34:25;;;;;;;39.25;17.48;;;-0.90;99.90;;;;;;4970710;28;20067;-62
2022/12/18 02:36:52;;;;;;;29.27;13.85;;;-0.90;99.90;;;;;;4971754;28;20046;-61
2022/12/18 02:39:20;;;;;;;32.17;13.45;;;-1.00;99.90;;;;;;4970220;28;20047;-61
2022/12/18 02:41:47;;;;;;;33.60;12.75;;;-1.00;99.90;;;;;;4970981;28;20065;-62
2022/12/18 02:44:14;;;;;;;38.95;14.77;;;-1.00;99.90;;;;;;4971421;28;20055;-61
2022/12/18 02:46:43;;;;;;;28.33;12.10;;;-1.10;99.90;;;;;;4972493;28;20043;-61
2022/12/18 02:49:39;;;;;;;27.10;12.80;;;-1.10;99.90;;;;;;4971953;28;20142;-62
2022/12/18 02:52:42;;;;;;;33.47;12.90;;;-1.10;99.90;;;;;;4959856;28;20130;-61
2022/12/18 02:55:31;;;;;;;30.08;13.90;;;-1.10;99.90;;;;;;4971710;28;20077;-61
2022/12/18 02:58:03;;;;;;;26.98;12.30;;;-1.10;99.90;;;;;;4971347;28;20050;-61
2022/12/18 03:00:50;;;;;;;30.02;13.13;;;-1.10;99.90;;;;;;4970314;28;20053;-62
2022/12/18 03:03:36;;;;;;;30.85;12.85;;;-1.10;99.90;;;;;;4971023;28;20094;-60
2022/12/18 03:06:10;;;;;;;30.20;12.13;;;-1.10;99.90;;;;;;4968527;28;20111;-61
2022/12/18 03:08:39;;;;;;;29.73;14.32;;;-1.10;99.90;;;;;;4963793;28;20063;-61
2022/12/18 03:11:10;;;;;;;28.50;12.85;;;-1.10;99.90;;;;;;4970254;28;20098;-61
2022/12/18 03:13:52;;;;;;;29.38;13.02;;;-1.00;99.90;;;;;;4970194;28;20086;-61
2022/12/18 03:16:27;;;;;;;30.75;13.68;;;-1.10;99.90;;;;;;4969949;28;20058;-61
2022/12/18 03:19:08;;;;;;;31.45;12.25;;;-1.00;99.90;;;;;;4962077;28;20047;-61
2022/12/18 03:21:46;;;;;;;27.95;10.70;;;-1.00;99.90;;;;;;4969944;28;20542;-61
2022/12/18 03:24:13;;;;;;;22.63;11.60;;;-1.00;99.90;;;;;;4970783;28;20047;-60
2022/12/18 03:26:41;;;;;;;30.60;14.20;;;-1.30;99.90;;;;;;4970013;28;20046;-61
2022/12/18 03:29:09;;;;;;;31.33;13.13;;;-1.10;99.90;;;;;;4969432;28;20058;-61
2022/12/18 03:31:36;;;;;;;27.95;11.55;;;-1.00;99.90;;;;;;4970821;28;20134;-61
2022/12/18 03:34:04;;;;;;;31.20;12.43;;;-1.00;99.90;;;;;;4969251;28;20062;-61
2022/12/18 03:36:31;;;;;;;29.88;13.00;;;-1.00;99.90;;;;;;4969852;28;20414;-61
2022/12/18 03:38:58;;;;;;;28.65;12.93;;;-1.00;99.90;;;;;;4969354;28;20043;-61
2022/12/18 03:41:34;;;;;;;25.45;13.00;;;-1.00;99.90;;;;;;4969625;28;20101;-61
2022/12/18 03:44:19;;;;;;;30.00;12.48;;;-1.00;99.90;;;;;;4969111;28;20050;-61
2022/12/18 03:47:19;;;;;;;29.17;12.02;;;-1.00;99.90;;;;;;4970478;28;20162;-61
2022/12/18 03:49:56;;;;;;;28.00;12.07;;;-0.90;99.90;;;;;;4955467;28;20495;-61
2022/12/18 03:52:27;;;;;;;28.63;12.88;;;-0.90;99.90;;;;;;4984655;28;20053;-61
2022/12/18 03:54:54;;;;;;;31.15;11.55;;;-0.80;99.90;;;;;;4970096;28;20050;-62
2022/12/18 03:57:22;;;;;;;24.75;11.57;;;-0.80;99.90;;;;;;4970619;28;20057;-62
2022/12/18 03:59:50;;;;;;;35.13;12.77;;;-0.70;99.90;;;;;;4966817;28;20047;-62
2022/12/18 04:02:17;;;;;;;25.65;11.38;;;-0.80;99.90;;;;;;4969452;28;20047;-62
2022/12/18 04:04:44;;;;;;;25.40;11.63;;;-0.80;99.90;;;;;;4966471;28;20051;-62
2022/12/18 04:07:11;;;;;;;28.58;13.73;;;-0.80;99.90;;;;;;4969670;28;20053;-60
2022/12/18 04:09:38;;;;;;;25.60;12.07;;;-0.80;99.90;;;;;;4968584;28;20057;-61
2022/12/18 04:12:05;;;;;;;22.85;11.40;;;-0.80;99.90;;;;;;4968974;28;20054;-60
2022/12/18 04:14:35;;;;;;;28.10;12.02;;;-0.70;99.90;;;;;;4968803;28;20051;-61
2022/12/18 04:17:02;;;;;;;34.38;13.27;;;-0.70;99.90;;;;;;4970334;28;20494;-61
2022/12/18 04:19:29;;;;;;;30.15;14.15;;;-0.70;99.90;;;;;;4968185;28;20073;-61
2022/12/18 04:21:56;;;;;;;29.23;11.57;;;-0.60;99.90;;;;;;4970103;28;20043;-61
2022/12/18 04:24:22;;;;;;;38.30;14.05;;;-0.60;99.90;;;;;;4969891;28;20057;-61
2022/12/18 04:26:49;;;;;;;29.70;12.40;;;-0.50;99.90;;;;;;4970081;28;20054;-61
2022/12/18 04:29:16;;;;;;;26.83;12.30;;;-0.40;99.90;;;;;;4984630;28;20051;-60
2022/12/18 04:31:42;;;;;;;25.88;12.15;;;-0.40;99.90;;;;;;4969713;28;20061;-61
2022/12/18 04:34:09;;;;;;;24.88;12.23;;;-0.40;99.90;;;;;;4964759;28;20051;-61
2022/12/18 04:36:36;;;;;;;27.55;12.50;;;-0.20;99.90;;;;;;4966559;28;20051;-60
2022/12/18 04:39:03;;;;;;;30.08;12.23;;;-0.40;99.90;;;;;;4970162;28;20088;-62
2022/12/18 04:41:30;;;;;;;31.63;11.95;;;-0.30;99.90;;;;;;4969639;28;20445;-61
2022/12/18 04:43:56;;;;;;;29.67;12.55;;;-0.30;99.90;;;;;;4969678;28;20047;-62
2022/12/18 04:46:23;;;;;;;26.65;14.23;;;-0.20;99.90;;;;;;4968828;28;20054;-62
2022/12/18 04:48:50;;;;;;;28.40;13.07;;;-0.20;99.90;;;;;;4968602;28;20039;-62
2022/12/18 04:51:17;;;;;;;24.73;11.90;;;-0.20;99.90;;;;;;4959250;28;20065;-62
2022/12/18 04:53:51;;;;;;;41.03;14.43;;;-0.10;99.90;;;;;;4964583;28;20047;-61
2022/12/18 04:56:18;;;;;;;34.05;13.15;;;-0.10;99.90;;;;;;4968140;28;20057;-61
2022/12/18 04:58:45;;;;;;;33.28;13.40;;;0.00;99.90;;;;;;4969602;28;20058;-61
2022/12/18 05:01:12;;;;;;;23.90;13.02;;;0.00;99.90;;;;;;4969330;28;20054;-61
2022/12/18 05:03:39;;;;;;;28.38;13.10;;;0.00;99.90;;;;;;4969477;28;20043;-61
2022/12/18 05:06:07;;;;;;;34.13;14.40;;;0.00;99.90;;;;;;4969563;28;20053;-61
2022/12/18 05:08:33;;;;;;;25.60;12.95;;;0.10;99.90;;;;;;4969612;28;20043;-60
2022/12/18 05:11:05;;;;;;;32.00;14.82;;;0.10;99.90;;;;;;4969367;28;20051;-61
2022/12/18 05:13:35;;;;;;;27.30;14.13;;;0.20;99.90;;;;;;4984232;28;20415;-62
2022/12/18 05:16:02;;;;;;;34.35;14.50;;;0.20;99.90;;;;;;4969606;28;20138;-62
2022/12/18 05:18:30;;;;;;;27.48;12.07;;;0.20;99.90;;;;;;4968792;28;20043;-62
2022/12/18 05:20:57;;;;;;;26.95;13.57;;;0.20;99.90;;;;;;4969603;28;20081;-61
2022/12/18 05:23:24;;;;;;;26.77;13.15;;;0.20;99.90;;;;;;4983789;28;20051;-61
2022/12/18 05:25:54;;;;;;;29.73;12.77;;;0.30;99.90;;;;;;4969410;28;20050;-60
2022/12/18 05:28:22;;;;;;;32.47;12.82;;;0.30;99.90;;;;;;4969047;28;20051;-60
2022/12/18 05:30:50;;;;;;;29.20;13.73;;;0.30;99.90;;;;;;4969364;28;20051;-61
2022/12/18 05:33:18;;;;;;;29.20;13.43;;;0.30;99.90;;;;;;4965311;28;20055;-61
2022/12/18 05:35:49;;;;;;;33.72;13.57;;;0.40;99.90;;;;;;4969836;28;20529;-61
2022/12/18 05:38:16;;;;;;;28.27;13.45;;;0.40;99.90;;;;;;4965337;28;20483;-61
2022/12/18 05:40:43;;;;;;;31.83;15.27;;;0.40;99.90;;;;;;4970022;28;20490;-61
2022/12/18 05:43:10;;;;;;;29.50;14.05;;;0.50;99.90;;;;;;4972873;28;20061;-61
2022/12/18 05:45:42;;;;;;;26.27;12.73;;;0.50;99.90;;;;;;4973005;28;20055;-61
2022/12/18 05:48:12;;;;;;;32.25;14.95;;;0.50;99.90;;;;;;4972616;28;20659;-61
2022/12/18 05:50:41;;;;;;;29.23;14.77;;;0.60;99.90;;;;;;4972680;28;20057;-61
2022/12/18 05:53:08;;;;;;;29.73;14.32;;;0.60;99.90;;;;;;4972377;28;20129;-62
2022/12/18 05:55:38;;;;;;;30.48;15.88;;;0.60;99.90;;;;;;4972835;28;20057;-61
2022/12/18 05:58:06;;;;;;;39.97;15.63;;;0.60;99.90;;;;;;4972191;28;20050;-61
2022/12/18 06:00:34;;;;;;;30.73;13.18;;;0.60;99.90;;;;;;4972781;28;20054;-61
2022/12/18 06:03:01;;;;;;;27.50;13.50;;;0.60;99.90;;;;;;4971117;28;20042;-61
2022/12/18 06:05:28;;;;;;;34.60;14.60;;;0.60;99.90;;;;;;4972319;28;20114;-62
2022/12/18 06:07:55;;;;;;;25.60;12.55;;;0.60;99.90;;;;;;4971112;28;20047;-61
2022/12/18 06:10:21;;;;;;;31.48;14.98;;;0.60;99.90;;;;;;4972586;28;20117;-62
2022/12/18 06:12:48;;;;;;;30.00;13.93;;;0.60;99.90;;;;;;4972651;28;20113;-62
2022/12/18 06:15:15;;;;;;;36.83;15.65;;;0.60;99.90;;;;;;4972093;28;20053;-61
2022/12/18 06:17:42;;;;;;;32.40;14.65;;;0.60;99.90;;;;;;4966463;28;20094;-61
2022/12/18 06:20:10;;;;;;;29.13;14.50;;;0.60;99.90;;;;;;4970278;28;20051;-61
2022/12/18 06:22:36;;;;;;;26.92;13.68;;;0.50;99.90;;;;;;4972333;28;20038;-61
2022/12/18 06:25:04;;;;;;;30.23;15.30;;;0.50;99.90;;;;;;4972071;28;20055;-64
2022/12/18 06:27:33;;;;;;;28.17;12.65;;;0.60;99.90;;;;;;4971250;28;20047;-60
2022/12/18 06:30:00;;;;;;;27.30;13.55;;;0.60;99.90;;;;;;4971915;28;20047;-61
2022/12/18 06:32:27;;;;;;;28.10;13.75;;;0.60;99.90;;;;;;4971984;28;20051;-61
2022/12/18 06:34:55;;;;;;;33.80;14.27;;;0.60;99.90;;;;;;4971686;28;20047;-61
2022/12/18 06:37:25;;;;;;;26.23;12.95;;;0.60;99.90;;;;;;4967065;28;20047;-61
2022/12/18 06:39:53;;;;;;;29.90;13.95;;;0.60;99.90;;;;;;4962231;28;20046;-61
2022/12/18 06:42:23;;;;;;;24.73;12.98;;;0.60;99.90;;;;;;4972007;28;20054;-61
2022/12/18 06:44:50;;;;;;;33.78;13.52;;;0.60;99.90;;;;;;4971775;28;20552;-60
2022/12/18 06:47:18;;;;;;;22.75;13.18;;;0.60;99.90;;;;;;4969507;28;20074;-60
2022/12/18 06:49:44;;;;;;;28.80;13.60;;;0.80;99.90;;;;;;4971938;28;20050;-60
2022/12/18 06:52:11;;;;;;;31.58;13.70;;;0.60;99.90;;;;;;4971826;28;20051;-61
2022/12/18 06:54:38;;;;;;;27.40;13.95;;;0.60;99.90;;;;;;4971714;28;20046;-61
2022/12/18 06:57:05;;;;;;;29.67;14.90;;;0.70;99.90;;;;;;4971898;28;20069;-61
2022/12/18 06:59:31;;;;;;;27.75;14.30;;;0.70;99.90;;;;;;4972018;28;20505;-60
2022/12/18 07:01:58;;;;;;;30.67;13.02;;;1.00;99.90;;;;;;4971361;28;20039;-61
2022/12/18 07:04:29;;;;;;;28.52;13.90;;;0.70;99.90;;;;;;4971620;28;20051;-61
2022/12/18 07:06:56;;;;;;;32.63;14.05;;;0.70;99.90;;;;;;4969911;28;20516;-61
2022/12/18 07:09:23;;;;;;;33.47;13.02;;;0.70;99.90;;;;;;4971722;28;20254;-61
2022/12/18 07:11:50;;;;;;;32.70;12.88;;;0.60;99.90;;;;;;4971147;28;20054;-61
2022/12/18 07:14:17;;;;;;;30.70;15.32;;;0.90;99.90;;;;;;4957975;28;20043;-61
2022/12/18 07:16:44;;;;;;;27.02;13.48;;;0.80;99.90;;;;;;4969258;28;20058;-61
2022/12/18 07:19:11;;;;;;;28.02;12.77;;;0.70;99.90;;;;;;4971404;28;20430;-62
2022/12/18 07:21:37;;;;;;;29.17;13.35;;;0.70;99.90;;;;;;4971156;28;20054;-61
2022/12/18 07:24:05;;;;;;;26.05;12.23;;;0.80;99.90;;;;;;4971389;28;20042;-61
2022/12/18 07:26:31;;;;;;;33.72;13.52;;;0.80;99.90;;;;;;4971003;28;20068;-61
2022/12/18 07:28:58;;;;;;;31.02;13.25;;;0.80;99.90;;;;;;4971323;28;20043;-61
2022/12/18 07:31:25;;;;;;;30.20;13.52;;;1.10;99.90;;;;;;4971404;28;20082;-61
2022/12/18 07:33:52;;;;;;;30.08;12.65;;;0.90;99.90;;;;;;4969952;28;20530;-61
2022/12/18 07:36:19;;;;;;;27.92;13.20;;;0.90;99.90;;;;;;4971352;28;20057;-61
2022/12/18 07:38:48;;;;;;;29.00;11.90;;;0.90;99.90;;;;;;4962965;28;20510;-62
2022/12/18 07:41:15;;;;;;;27.77;12.27;;;0.90;99.90;;;;;;4971239;28;20057;-61
2022/12/18 07:43:42;;;;;;;27.30;12.90;;;0.90;99.90;;;;;;4971110;28;20054;-61
2022/12/18 07:46:10;;;;;;;30.75;13.88;;;0.90;99.90;;;;;;4970740;28;20046;-61
2022/12/18 07:48:40;;;;;;;34.17;13.43;;;0.90;99.90;;;;;;4969458;28;20038;-62
2022/12/18 07:51:06;;;;;;;28.02;13.63;;;0.90;99.90;;;;;;4969162;28;20054;-61
2022/12/18 07:53:34;;;;;;;27.92;12.95;;;0.80;99.90;;;;;;4970554;28;20078;-62
2022/12/18 07:56:03;;;;;;;30.33;14.18;;;0.80;99.90;;;;;;4970772;28;20043;-61
2022/12/18 07:58:49;;;;;;;27.73;14.00;;;0.90;99.90;;;;;;4969345;28;20047;-62
2022/12/18 08:01:16;;;;;;;28.38;13.57;;;1.10;99.90;;;;;;4970678;28;20061;-62
2022/12/18 08:03:44;;;;;;;31.25;13.68;;;0.70;99.90;;;;;;4970061;28;20053;-61
2022/12/18 08:06:10;;;;;;;33.35;13.65;;;0.90;99.90;;;;;;4985556;28;20417;-62
2022/12/18 08:08:37;;;;;;;33.05;14.02;;;0.90;99.90;;;;;;4968748;28;20043;-61
2022/12/18 08:11:04;;;;;;;30.17;13.93;;;0.90;99.90;;;;;;4951114;29;20055;-61
2022/12/18 08:13:31;;;;;;;36.78;14.63;;;0.90;99.90;;;;;;4979662;28;20402;-60
2022/12/18 08:16:02;;;;;;;33.63;14.95;;;1.00;99.90;;;;;;4969270;28;20087;-60
2022/12/18 08:18:29;;;;;;;29.95;13.20;;;0.90;99.90;;;;;;4969916;28;20647;-61
2022/12/18 08:20:56;;;;;;;27.60;13.73;;;1.00;99.90;;;;;;4968983;28;20059;-62
2022/12/18 08:23:22;;;;;;;32.63;14.07;;;1.00;99.90;;;;;;4967868;28;20477;-60
2022/12/18 08:25:54;;;;;;;30.55;14.68;;;1.10;99.90;;;;;;4967636;28;20082;-60
2022/12/18 08:28:21;;;;;;;30.67;12.77;;;1.10;99.90;;;;;;4957908;28;20476;-61
2022/12/18 08:30:51;;;;;;;31.83;13.02;;;1.10;99.90;;;;;;4967641;28;20477;-61
2022/12/18 08:33:18;;;;;;;29.05;13.52;;;1.20;99.90;;;;;;4966889;28;20061;-61
2022/12/18 08:35:45;;;;;;;30.73;14.38;;;1.20;99.90;;;;;;4967070;28;20076;-62
2022/12/18 08:38:12;;;;;;;33.15;14.80;;;1.20;99.90;;;;;;4967262;28;20042;-62
2022/12/18 08:40:38;;;;;;;28.98;13.77;;;1.30;99.90;;;;;;4967511;28;20085;-62
2022/12/18 08:45:50;;;;;;;31.05;15.00;;;1.30;99.90;;;;;;4966446;28;20047;-61
2022/12/18 08:48:17;;;;;;;29.73;14.27;;;1.30;99.90;;;;;;4966599;28;20065;-62
2022/12/18 08:50:57;;;;;;;34.70;15.52;;;1.40;99.90;;;;;;4967120;28;20113;-61
2022/12/18 08:53:24;;;;;;;27.70;12.43;;;1.50;99.90;;;;;;4955344;28;20051;-61
2022/12/18 08:55:51;;;;;;;30.70;14.70;;;1.50;99.90;;;;;;4958284;28;20050;-61
2022/12/18 08:58:18;;;;;;;29.60;13.77;;;1.40;99.90;;;;;;4965832;28;20418;-61
2022/12/18 09:00:45;;;;;;;31.73;13.68;;;1.50;99.90;;;;;;4964782;28;20430;-62
2022/12/18 09:03:15;;;;;;;29.08;13.90;;;1.50;99.90;;;;;;4947881;28;20047;-62
2022/12/18 09:05:42;;;;;;;33.90;14.55;;;1.50;99.90;;;;;;4964480;28;20086;-61
2022/12/18 09:08:09;;;;;;;49.67;14.48;;;2.30;99.90;;;;;;4965006;28;20051;-61
2022/12/18 09:10:44;;;;;;;43.17;16.05;;;1.60;99.90;;;;;;4961956;28;20050;-62
2022/12/18 09:13:11;;;;;;;30.50;14.07;;;1.60;99.90;;;;;;4961610;28;20051;-62
2022/12/18 09:15:49;;;;;;;31.85;13.63;;;1.60;99.90;;;;;;4958534;28;20410;-63
2022/12/18 09:18:17;;;;;;;34.35;13.85;;;1.60;99.90;;;;;;4955946;28;20070;-61
2022/12/18 09:20:43;;;;;;;37.92;15.05;;;1.60;99.90;;;;;;4962741;28;20493;-62
2022/12/18 09:23:10;;;;;;;30.98;13.93;;;1.60;99.90;;;;;;4625480;28;10000578;-61
2022/12/18 09:25:37;;;;;;;25.90;13.27;;;1.60;99.90;;;;;;4969967;28;20056;-60
2022/12/18 09:28:17;;;;;;;30.08;15.07;;;1.70;99.90;;;;;;4960039;28;20083;-63
2022/12/18 09:30:46;;;;;;;34.35;14.57;;;1.60;99.90;;;;;;4961373;28;20078;-61
2022/12/18 09:33:13;;;;;;;30.23;14.07;;;1.60;99.90;;;;;;4970515;28;20065;-62
2022/12/18 09:35:40;;;;;;;29.65;15.90;;;1.60;99.90;;;;;;4960462;28;20766;-61
2022/12/18 09:38:08;;;;;;;27.23;13.35;;;1.70;99.90;;;;;;4960565;28;20090;-61
2022/12/18 09:40:39;;;;;;;32.58;15.07;;;1.70;99.90;;;;;;4960930;28;20423;-63
2022/12/18 09:43:06;;;;;;;32.03;14.50;;;1.70;99.90;;;;;;4976012;28;20046;-62
2022/12/18 09:45:40;;;;;;;30.63;15.23;;;1.70;99.90;;;;;;4959730;28;20051;-61
2022/12/18 09:48:23;;;;;;;31.63;13.73;;;1.80;99.90;;;;;;4964282;28;20074;-62
2022/12/18 09:50:50;;;;;;;35.80;14.98;;;1.80;99.90;;;;;;4969653;28;20054;-60
2022/12/18 09:53:22;;;;;;;30.60;12.85;;;1.80;99.90;;;;;;4969080;28;20054;-62
2022/12/18 09:55:49;;;;;;;30.35;14.18;;;1.80;99.90;;;;;;4968781;28;20039;-62
2022/12/18 09:58:31;;;;;;;32.10;14.45;;;1.90;99.90;;;;;;4959316;28;20433;-62
2022/12/18 10:00:58;;;;;;;31.00;14.18;;;1.80;99.90;;;;;;4969271;28;20057;-63
2022/12/18 10:03:26;;;;;;;26.20;14.00;;;1.90;99.90;;;;;;4979269;28;20149;-61
2022/12/18 10:06:04;;;;;;;30.23;14.88;;;1.90;99.90;;;;;;4969797;28;20051;-62
2022/12/18 10:09:00;;;;;;;26.50;12.95;;;1.90;99.90;;;;;;4968330;28;20055;-61
2022/12/18 10:11:53;;;;;;;31.00;13.60;;;1.90;99.90;;;;;;4953883;28;20061;-61
2022/12/18 10:14:42;;;;;;;28.77;13.10;;;2.00;99.90;;;;;;4968709;28;20051;-61
2022/12/18 10:17:13;;;;;;;29.08;13.65;;;2.00;99.90;;;;;;4969519;28;20077;-62
2022/12/18 10:19:48;;;;;;;25.38;11.50;;;2.00;99.90;;;;;;4968286;28;20121;-61
2022/12/18 10:22:45;;;;;;;31.20;13.25;;;2.10;99.90;;;;;;4966269;28;20054;-61
2022/12/18 10:25:20;;;;;;;26.58;13.02;;;2.00;99.90;;;;;;4966998;28;20320;-61
2022/12/18 10:27:46;;;;;;;27.38;13.77;;;2.00;99.90;;;;;;4983466;28;20113;-60
2022/12/18 10:30:19;;;;;;;26.75;12.82;;;2.00;99.90;;;;;;4967691;28;20065;-60
2022/12/18 10:32:46;;;;;;;27.95;13.27;;;2.00;99.90;;;;;;4967807;28;20058;-60
2022/12/18 10:35:24;;;;;;;20.67;11.32;;;2.10;99.90;;;;;;4980750;28;20046;-61
2022/12/18 10:38:16;;;;;;;23.27;12.32;;;2.10;99.90;;;;;;4967883;28;20058;-61
2022/12/18 10:40:52;;;;;;;28.67;13.40;;;2.10;99.90;;;;;;4983891;28;20054;-60
2022/12/18 10:43:22;;;;;;;26.20;12.70;;;2.10;99.90;;;;;;4969042;28;20060;-62
2022/12/18 10:46:07;;;;;;;24.02;11.73;;;2.40;99.90;;;;;;4967339;28;20093;-62
2022/12/18 10:48:39;;;;;;;27.88;12.65;;;2.20;99.90;;;;;;4983073;28;20194;-61
2022/12/18 10:51:06;;;;;;;24.70;12.23;;;2.20;99.90;;;;;;4968625;28;20557;-61
2022/12/18 10:53:39;;;;;;;30.63;12.13;;;2.30;99.90;;;;;;4966674;28;20047;-62
2022/12/18 10:56:06;;;;;;;27.45;11.82;;;2.30;99.90;;;;;;4965838;28;20580;-62
2022/12/18 10:58:38;;;;;;;24.63;12.07;;;2.30;99.90;;;;;;4967500;28;20142;-65
2022/12/18 11:01:12;;;;;;;24.73;12.10;;;2.30;99.90;;;;;;4968231;28;20149;-62
2022/12/18 11:03:40;;;;;;;;;;;2.40;99.90;;;;;;4966141;28;20069;-64
2022/12/18 11:06:15;;;;;;;26.13;11.35;;;2.30;99.90;;;;;;4961529;28;20413;-61
2022/12/18 11:08:43;;;;;;;24.80;10.95;;;2.40;99.90;;;;;;4966346;28;20054;-63
2022/12/18 11:11:20;;;;;;;31.98;12.40;;;2.40;99.90;;;;;;4966544;28;20086;-61
2022/12/18 11:14:05;;;;;;;28.73;12.82;;;2.50;99.90;;;;;;4967421;28;20057;-61
2022/12/18 11:16:51;;;;;;;29.13;12.23;;;2.50;99.90;;;;;;4966338;28;20059;-60
2022/12/18 11:19:39;;;;;;;22.52;11.55;;;2.50;99.90;;;;;;4967250;28;20494;-61
2022/12/18 11:22:26;;;;;;;26.42;12.25;;;2.50;99.90;;;;;;4966319;28;20078;-61
2022/12/18 11:25:06;;;;;;;25.65;13.63;;;2.60;99.90;;;;;;4966667;28;20082;-61
2022/12/18 11:28:01;;;;;;;23.42;12.15;;;2.60;99.90;;;;;;4949921;28;20118;-60
2022/12/18 11:30:33;;;;;;;25.17;11.93;;;2.60;99.90;;;;;;4968136;28;20635;-60
2022/12/18 11:33:05;;;;;;;34.65;16.92;;;2.70;99.90;;;;;;4966116;28;20145;-60
2022/12/18 11:35:42;;;;;;;27.67;14.68;;;2.70;99.90;;;;;;4966088;28;20051;-60
2022/12/18 11:38:25;;;;;;;28.90;13.40;;;2.70;99.90;;;;;;4966116;28;20051;-58
2022/12/18 11:40:56;;;;;;;37.35;16.20;;;2.80;99.90;;;;;;4966774;28;20054;-56
2022/12/18 11:43:41;;;;;;;31.73;15.20;;;2.70;99.90;;;;;;4965652;28;20537;-58
2022/12/18 11:46:14;;;;;;;31.08;15.90;;;2.70;99.90;;;;;;4964444;28;20046;-58
2022/12/18 11:48:50;;;;;;;30.92;16.10;;;2.80;99.90;;;;;;4966279;28;20129;-58
2022/12/18 11:51:28;;;;;;;27.98;15.45;;;2.70;99.90;;;;;;4962025;28;20058;-59
2022/12/18 11:53:55;;;;;;;32.63;16.38;;;2.70;99.90;;;;;;4966216;28;20061;-58
2022/12/18 11:56:35;;;;;;;26.50;15.95;;;2.70;99.90;;;;;;4967074;28;20047;-58
2022/12/18 11:59:27;;;;;;;37.22;17.05;;;2.70;99.90;;;;;;4965660;28;20051;-57
2022/12/18 12:01:59;;;;;;;37.30;16.30;;;2.60;99.90;;;;;;4965563;28;20601;-60
2022/12/18 12:04:55;;;;;;;30.95;15.98;;;2.60;99.90;;;;;;4955904;28;20055;-57
2022/12/18 12:07:22;;;;;;;41.05;16.38;;;2.60;99.90;;;;;;4965007;28;20399;-56
2022/12/18 12:10:08;;;;;;;32.97;15.80;;;2.60;99.90;;;;;;4966951;28;20420;-59
2022/12/18 12:12:46;;;;;;;30.08;14.95;;;2.60;99.90;;;;;;4963456;28;20054;-58
2022/12/18 12:15:46;;;;;;;33.90;16.02;;;2.60;99.90;;;;;;4961375;28;20170;-58
2022/12/18 12:18:41;;;;;;;33.83;14.98;;;2.60;99.90;;;;;;4956574;28;20054;-58
2022/12/18 12:21:34;;;;;;;34.35;15.48;;;2.60;99.90;;;;;;4966471;28;20050;-58
2022/12/18 12:24:12;;;;;;;30.00;14.60;;;2.60;99.90;;;;;;4965824;28;20051;-59
2022/12/18 12:26:56;;;;;;;24.75;13.50;;;2.60;99.90;;;;;;4967786;28;20510;-60
2022/12/18 12:29:41;;;;;;;23.65;13.00;;;2.60;99.90;;;;;;4969484;28;20124;-60
2022/12/18 12:32:11;;;;;;;26.27;12.75;;;2.50;99.90;;;;;;4966824;28;20061;-63
2022/12/18 12:34:44;;;;;;;32.22;13.18;;;2.60;99.90;;;;;;4963537;28;20247;-60
2022/12/18 12:37:44;;;;;;;25.90;14.13;;;2.60;99.90;;;;;;4959785;28;20529;-60
2022/12/18 12:40:17;;;;;;;25.20;14.05;;;2.60;99.90;;;;;;4947738;28;20511;-60
2022/12/18 12:43:24;;;;;;;25.20;14.13;;;2.60;99.90;;;;;;4965211;28;20054;-60
2022/12/18 12:45:53;;;;;;;33.55;14.77;;;2.60;99.90;;;;;;4966698;28;20046;-61
2022/12/18 12:48:26;;;;;;;35.33;14.63;;;2.60;99.90;;;;;;4966522;28;20454;-60
2022/12/18 12:50:53;;;;;;;26.35;14.05;;;2.60;99.90;;;;;;4968259;28;20125;-61
2022/12/18 12:53:34;;;;;;;26.65;13.65;;;2.60;99.90;;;;;;4967340;28;20054;-61
2022/12/18 12:56:02;;;;;;;26.67;12.80;;;2.60;99.90;;;;;;4968083;28;20054;-61
2022/12/18 12:58:31;;;;;;;30.50;14.75;;;2.60;99.90;;;;;;4968683;28;20497;-59